< < Back
Terminal Aerodrome Forecast


Current Version              Previous Versions:   1  2  3  4  5  6  7  8  9  

Terminal Aerodrome Forecast

767
FTUS42 KJAX 300535
TAFSSI
TAF
KSSI 300535Z 3006/0106 VRB04KT P6SM BKN250
     FM301500 22006KT P6SM SCT035 BKN250
     FM301800 15009KT P6SM VCTS BKN040CB BKN250
     FM010200 20005KT P6SM SCT100 BKN250=

Latest METAR

050
SAUS70 KWBC 300800 RRO
MTRSSI
METAR KSSI 300753Z AUTO 00000KT 10SM CLR 24/23 A2996 RMK AO2 SLP146
T02440233


USA.gov is the U.S. government's official web portal to all federal, state and local government web resources and services.